Time;durP1;ratioP1;P1;durP2;ratioP2;P2;SDS_P1;SDS_P2;PMS_P1;PMS_P2;Temp;Humidity;BMP_temperature;BMP_pressure;BME280_temperature;BME280_humidity;BME280_pressure;Samples;Min_cycle;Max_cycle;Signal;HPM_P1;HPM_P2
2021/12/23 00:01:31;;;;;;;0.30;0.30;;;;;;;;;;5025558;28;20205;-67
2021/12/23 00:03:58;;;;;;;0.67;0.67;;;;;;;;;;5025996;28;20440;-67
2021/12/23 00:06:24;;;;;;;0.50;0.50;;;;;;;;;;5025248;28;20218;-69
2021/12/23 00:08:50;;;;;;;0.30;0.30;;;;;;;;;;5025012;28;20205;-68
2021/12/23 00:11:16;;;;;;;0.30;0.30;;;;;;;;;;5025210;28;20205;-67
2021/12/23 00:13:50;;;;;;;0.30;0.30;;;;;;;;;;5025482;28;20205;-68
2021/12/23 00:16:18;;;;;;;0.30;0.30;;;;;;;;;;5025382;28;20197;-67
2021/12/23 00:18:51;;;;;;;0.23;0.23;;;;;;;;;;5024912;28;20251;-67
2021/12/23 00:24:02;;;;;;;0.40;0.40;;;;;;;;;;5025062;28;20187;-67
2021/12/23 00:26:28;;;;;;;0.37;0.37;;;;;;;;;;5025063;28;20244;-68
2021/12/23 00:28:57;;;;;;;0.37;0.37;;;;;;;;;;5008616;28;20210;-66
2021/12/23 00:31:23;;;;;;;0.30;0.30;;;;;;;;;;5005467;28;20252;-66
2021/12/23 00:33:49;;;;;;;0.30;0.30;;;;;;;;;;5005366;28;20241;-67
2021/12/23 00:36:15;;;;;;;0.30;0.30;;;;;;;;;;5005288;28;20206;-67
2021/12/23 00:38:46;;;;;;;0.73;0.73;;;;;;;;;;5005069;28;20206;-67
2021/12/23 00:41:13;;;;;;;0.40;0.40;;;;;;;;;;5019321;28;20228;-67
2021/12/23 00:43:40;;;;;;;0.30;0.30;;;;;;;;;;5024530;28;20213;-67
2021/12/23 00:46:07;;;;;;;0.30;0.30;;;;;;;;;;5024587;28;20276;-66
2021/12/23 00:48:35;;;;;;;0.30;0.30;;;;;;;;;;5024767;28;20371;-67
2021/12/23 00:51:02;;;;;;;0.30;0.30;;;;;;;;;;5024259;28;20264;-67
2021/12/23 00:53:35;;;;;;;0.30;0.30;;;;;;;;;;5024649;28;20209;-67
2021/12/23 00:56:01;;;;;;;0.30;0.30;;;;;;;;;;5024754;28;20224;-68
2021/12/23 00:58:27;;;;;;;0.30;0.30;;;;;;;;;;5024277;28;20217;-68
2021/12/23 01:00:54;;;;;;;0.30;0.30;;;;;;;;;;5024320;28;20240;-67
2021/12/23 01:03:21;;;;;;;0.30;0.30;;;;;;;;;;5024503;28;20279;-66
2021/12/23 01:05:48;;;;;;;0.30;0.30;;;;;;;;;;5024395;28;20283;-67
2021/12/23 01:08:15;;;;;;;0.30;0.30;;;;;;;;;;5024388;28;20213;-67
2021/12/23 01:10:41;;;;;;;0.57;0.57;;;;;;;;;;5023891;28;20205;-68
2021/12/23 01:13:13;;;;;;;0.40;0.40;;;;;;;;;;5024373;28;20206;-68
2021/12/23 01:15:57;;;;;;;0.30;0.30;;;;;;;;;;5024010;28;20189;-66
2021/12/23 01:18:29;;;;;;;0.30;0.30;;;;;;;;;;5023286;28;20260;-68
2021/12/23 01:21:03;;;;;;;0.30;0.30;;;;;;;;;;5023934;28;20271;-67
2021/12/23 01:23:31;;;;;;;0.30;0.30;;;;;;;;;;5024275;28;20265;-67
2021/12/23 01:25:58;;;;;;;0.30;0.30;;;;;;;;;;5024124;28;20229;-67
2021/12/23 01:28:25;;;;;;;0.40;0.40;;;;;;;;;;5023868;28;20208;-67
2021/12/23 01:30:52;;;;;;;0.30;0.30;;;;;;;;;;5023720;28;20229;-67
2021/12/23 01:33:18;;;;;;;0.37;0.37;;;;;;;;;;5024111;28;20251;-67
2021/12/23 01:35:49;;;;;;;0.30;0.30;;;;;;;;;;5023901;28;20204;-67
2021/12/23 01:38:16;;;;;;;0.30;0.30;;;;;;;;;;5023769;28;20201;-67
2021/12/23 01:40:44;;;;;;;0.30;0.30;;;;;;;;;;5023940;28;20484;-68
2021/12/23 01:43:10;;;;;;;0.40;0.40;;;;;;;;;;5023572;28;20316;-68
2021/12/23 01:45:43;;;;;;;0.30;0.30;;;;;;;;;;5023774;28;20287;-67
2021/12/23 01:48:09;;;;;;;1.57;1.57;;;;;;;;;;5024585;28;20255;-67
2021/12/23 01:50:37;;;;;;;0.40;0.40;;;;;;;;;;5023346;28;20279;-67
2021/12/23 01:53:04;;;;;;;0.30;0.30;;;;;;;;;;5023812;28;20216;-68
2021/12/23 01:55:31;;;;;;;0.30;0.30;;;;;;;;;;5023837;28;20201;-66
2021/12/23 01:57:58;;;;;;;0.83;0.83;;;;;;;;;;5023714;28;20251;-68
2021/12/23 02:00:25;;;;;;;0.30;0.30;;;;;;;;;;5023622;28;20209;-67
2021/12/23 02:02:52;;;;;;;0.70;0.70;;;;;;;;;;5023686;28;20220;-68
2021/12/23 02:05:19;;;;;;;0.30;0.30;;;;;;;;;;5023266;28;20235;-67
2021/12/23 02:07:45;;;;;;;0.30;0.30;;;;;;;;;;5023177;28;20208;-68
2021/12/23 02:10:13;;;;;;;0.30;0.30;;;;;;;;;;5023605;28;20205;-69
2021/12/23 02:12:41;;;;;;;0.30;0.30;;;;;;;;;;5023550;28;20230;-68
2021/12/23 02:15:07;;;;;;;0.30;0.30;;;;;;;;;;5023548;28;20201;-67
2021/12/23 02:17:35;;;;;;;0.30;0.30;;;;;;;;;;5023449;28;20205;-68
2021/12/23 02:20:02;;;;;;;0.40;0.40;;;;;;;;;;5011365;28;20256;-68
2021/12/23 02:22:28;;;;;;;0.40;0.40;;;;;;;;;;5003803;28;20248;-69
2021/12/23 02:24:55;;;;;;;1.37;1.37;;;;;;;;;;5003612;28;20451;-67
2021/12/23 02:27:21;;;;;;;0.30;0.30;;;;;;;;;;5004014;28;20508;-67
2021/12/23 02:29:47;;;;;;;0.40;0.40;;;;;;;;;;5003776;28;20527;-67
2021/12/23 02:32:13;;;;;;;0.30;0.30;;;;;;;;;;5007580;28;20244;-67
2021/12/23 02:34:40;;;;;;;0.30;0.30;;;;;;;;;;5007777;28;20209;-67
2021/12/23 02:37:07;;;;;;;0.43;0.43;;;;;;;;;;5007532;28;20255;-67
2021/12/23 02:39:34;;;;;;;0.33;0.33;;;;;;;;;;5007643;28;20208;-67
2021/12/23 02:42:00;;;;;;;0.40;0.40;;;;;;;;;;5007477;28;20205;-67
2021/12/23 02:44:26;;;;;;;0.40;0.40;;;;;;;;;;5007517;28;20219;-67
2021/12/23 02:46:52;;;;;;;0.30;0.30;;;;;;;;;;5007251;28;20556;-67
2021/12/23 02:49:19;;;;;;;0.30;0.30;;;;;;;;;;5008633;28;20232;-67
2021/12/23 02:51:45;;;;;;;0.30;0.30;;;;;;;;;;5026623;28;20571;-67
2021/12/23 02:54:13;;;;;;;0.30;0.30;;;;;;;;;;5026746;28;20251;-67
2021/12/23 02:56:39;;;;;;;0.30;0.30;;;;;;;;;;5026574;28;20213;-67
2021/12/23 02:59:05;;;;;;;0.30;0.30;;;;;;;;;;5026911;28;20218;-69
2021/12/23 03:01:31;;;;;;;0.30;0.30;;;;;;;;;;5026843;28;20252;-68
2021/12/23 03:03:59;;;;;;;0.50;0.50;;;;;;;;;;5026875;28;20205;-68
2021/12/23 03:06:25;;;;;;;0.30;0.30;;;;;;;;;;5026691;28;20224;-67
2021/12/23 03:08:52;;;;;;;0.30;0.30;;;;;;;;;;5026997;28;20217;-67
2021/12/23 03:11:21;;;;;;;0.30;0.30;;;;;;;;;;5006877;28;20260;-67
2021/12/23 03:13:48;;;;;;;1.17;1.17;;;;;;;;;;5007009;28;20206;-67
2021/12/23 03:16:15;;;;;;;6.33;5.83;;;;;;;;;;5006931;28;20202;-67
2021/12/23 03:18:42;;;;;;;0.20;0.20;;;;;;;;;;5006948;28;20205;-68
2021/12/23 03:21:08;;;;;;;0.30;0.30;;;;;;;;;;5006912;28;20437;-68
2021/12/23 03:23:34;;;;;;;0.30;0.30;;;;;;;;;;5006797;28;20205;-67
2021/12/23 03:26:01;;;;;;;0.30;0.30;;;;;;;;;;5019366;28;20286;-67
2021/12/23 03:28:28;;;;;;;0.30;0.30;;;;;;;;;;5025970;28;20215;-67
2021/12/23 03:30:55;;;;;;;0.40;0.40;;;;;;;;;;5025855;28;20275;-68
2021/12/23 03:33:21;;;;;;;0.30;0.30;;;;;;;;;;5026085;28;20208;-67
2021/12/23 03:35:47;;;;;;;0.30;0.30;;;;;;;;;;5026059;28;20211;-68
2021/12/23 03:38:14;;;;;;;0.77;0.77;;;;;;;;;;5014873;28;20210;-68
2021/12/23 03:40:40;;;;;;;0.40;0.40;;;;;;;;;;5006465;28;20205;-68
2021/12/23 03:43:07;;;;;;;0.30;0.30;;;;;;;;;;5005522;28;20523;-68
2021/12/23 03:45:34;;;;;;;0.30;0.30;;;;;;;;;;5024098;28;20224;-67
2021/12/23 03:48:00;;;;;;;0.30;0.30;;;;;;;;;;5045695;28;20258;-67
2021/12/23 03:50:27;;;;;;;0.37;0.37;;;;;;;;;;5045547;28;20302;-67
2021/12/23 03:52:53;;;;;;;0.50;0.50;;;;;;;;;;5045361;28;20206;-67
2021/12/23 03:55:19;;;;;;;0.33;0.33;;;;;;;;;;5045325;28;20208;-69
2021/12/23 03:57:47;;;;;;;0.30;0.30;;;;;;;;;;5045510;28;20205;-67
2021/12/23 04:00:14;;;;;;;0.40;0.40;;;;;;;;;;5030393;28;20510;-67
2021/12/23 04:02:42;;;;;;;0.30;0.30;;;;;;;;;;5025456;28;20209;-68
2021/12/23 04:05:08;;;;;;;0.63;0.63;;;;;;;;;;5025514;28;20503;-68
2021/12/23 04:07:35;;;;;;;0.30;0.30;;;;;;;;;;5025586;28;20215;-67
2021/12/23 04:10:01;;;;;;;2.50;2.43;;;;;;;;;;5025422;28;20205;-68
2021/12/23 04:12:27;;;;;;;2.93;2.83;;;;;;;;;;5025363;28;20205;-67
2021/12/23 04:14:54;;;;;;;1.73;1.63;;;;;;;;;;5025221;28;20404;-67
2021/12/23 04:17:20;;;;;;;0.30;0.30;;;;;;;;;;5025044;28;20216;-67
2021/12/23 04:19:49;;;;;;;0.30;0.30;;;;;;;;;;5025112;28;20448;-67
2021/12/23 04:22:15;;;;;;;0.30;0.30;;;;;;;;;;5024969;28;20231;-68
2021/12/23 04:24:42;;;;;;;0.30;0.30;;;;;;;;;;5025222;28;20410;-67
2021/12/23 04:27:09;;;;;;;0.73;0.73;;;;;;;;;;5025060;28;20429;-67
2021/12/23 04:29:35;;;;;;;0.40;0.40;;;;;;;;;;5024591;28;20247;-67
2021/12/23 04:32:01;;;;;;;0.30;0.30;;;;;;;;;;5025174;28;20248;-67
2021/12/23 04:34:28;;;;;;;0.30;0.30;;;;;;;;;;5025100;28;20233;-67
2021/12/23 04:36:55;;;;;;;0.30;0.30;;;;;;;;;;5024726;28;20202;-67
2021/12/23 04:39:22;;;;;;;0.37;0.37;;;;;;;;;;5024962;28;20208;-68
2021/12/23 04:41:48;;;;;;;0.43;0.43;;;;;;;;;;5024801;28;20216;-68
2021/12/23 04:44:14;;;;;;;0.30;0.30;;;;;;;;;;5024837;28;20204;-67
2021/12/23 04:46:40;;;;;;;0.30;0.30;;;;;;;;;;5024729;28;20225;-67
2021/12/23 04:49:07;;;;;;;3.83;3.53;;;;;;;;;;5015408;28;20214;-68
2021/12/23 04:51:33;;;;;;;0.30;0.30;;;;;;;;;;5004595;28;20236;-67
2021/12/23 04:54:00;;;;;;;0.30;0.30;;;;;;;;;;5004948;28;20206;-67
2021/12/23 04:56:27;;;;;;;0.30;0.30;;;;;;;;;;5004854;28;20224;-67
2021/12/23 04:58:53;;;;;;;0.40;0.40;;;;;;;;;;5004863;28;20217;-67
2021/12/23 05:01:26;;;;;;;0.30;0.30;;;;;;;;;;5004665;28;20253;-68
2021/12/23 05:03:53;;;;;;;0.30;0.30;;;;;;;;;;5014251;28;20201;-68
2021/12/23 05:06:19;;;;;;;0.30;0.30;;;;;;;;;;5024180;28;20225;-68
2021/12/23 05:08:45;;;;;;;0.30;0.30;;;;;;;;;;5024046;28;20256;-68
2021/12/23 05:11:13;;;;;;;0.30;0.30;;;;;;;;;;5024281;28;20208;-67
2021/12/23 05:13:39;;;;;;;0.30;0.30;;;;;;;;;;5024185;28;20515;-67
2021/12/23 05:16:06;;;;;;;0.30;0.30;;;;;;;;;;5023875;28;20205;-67
2021/12/23 05:18:32;;;;;;;0.30;0.30;;;;;;;;;;5024113;28;20205;-68
2021/12/23 05:20:58;;;;;;;0.80;0.80;;;;;;;;;;5023625;28;20208;-67
2021/12/23 05:23:25;;;;;;;0.30;0.30;;;;;;;;;;5024099;28;20527;-67
2021/12/23 05:25:51;;;;;;;0.60;0.60;;;;;;;;;;5023738;28;20476;-67
2021/12/23 05:28:18;;;;;;;0.30;0.30;;;;;;;;;;5023707;28;20259;-68
2021/12/23 05:30:45;;;;;;;0.30;0.30;;;;;;;;;;5023587;28;20209;-68
2021/12/23 05:33:11;;;;;;;0.70;0.70;;;;;;;;;;5023750;28;20260;-67
2021/12/23 05:35:37;;;;;;;0.30;0.30;;;;;;;;;;5023676;28;20236;-67
2021/12/23 05:38:03;;;;;;;0.33;0.33;;;;;;;;;;5023781;28;20216;-67
2021/12/23 05:40:30;;;;;;;0.30;0.30;;;;;;;;;;5023998;28;20267;-68
2021/12/23 05:42:57;;;;;;;1.17;1.17;;;;;;;;;;5023767;28;20249;-68
2021/12/23 05:45:24;;;;;;;2.10;2.00;;;;;;;;;;5031225;28;20502;-67
2021/12/23 05:47:51;;;;;;;0.30;0.30;;;;;;;;;;5043368;28;20228;-68
2021/12/23 05:50:18;;;;;;;0.30;0.30;;;;;;;;;;5043131;28;20255;-67
2021/12/23 05:52:46;;;;;;;0.30;0.30;;;;;;;;;;5043060;28;20228;-67
2021/12/23 05:55:13;;;;;;;0.30;0.30;;;;;;;;;;5043108;28;20208;-67
2021/12/23 05:57:40;;;;;;;0.30;0.30;;;;;;;;;;5041798;28;20494;-66
2021/12/23 06:00:09;;;;;;;0.30;0.30;;;;;;;;;;5003630;28;20252;-67
2021/12/23 06:02:37;;;;;;;0.30;0.30;;;;;;;;;;5003514;28;20217;-67
2021/12/23 06:05:03;;;;;;;0.30;0.30;;;;;;;;;;5003398;28;20255;-69
2021/12/23 06:07:29;;;;;;;0.30;0.30;;;;;;;;;;5003418;28;20598;-67
2021/12/23 06:09:56;;;;;;;0.50;0.50;;;;;;;;;;5003776;28;20256;-68
2021/12/23 06:12:22;;;;;;;0.50;0.50;;;;;;;;;;5003471;28;20224;-66
2021/12/23 06:14:48;;;;;;;0.30;0.30;;;;;;;;;;5003957;28;20212;-67
2021/12/23 06:17:14;;;;;;;0.67;0.67;;;;;;;;;;5003827;28;20272;-67
2021/12/23 06:19:42;;;;;;;0.30;0.30;;;;;;;;;;5003671;28;20209;-67
2021/12/23 06:22:08;;;;;;;0.40;0.40;;;;;;;;;;5003491;28;20393;-66
2021/12/23 06:24:35;;;;;;;0.30;0.30;;;;;;;;;;5003554;28;20392;-66
2021/12/23 06:27:01;;;;;;;0.30;0.30;;;;;;;;;;5003446;28;20253;-67
2021/12/23 06:29:27;;;;;;;0.30;0.30;;;;;;;;;;5025201;28;20435;-67
2021/12/23 06:31:53;;;;;;;0.30;0.30;;;;;;;;;;5022873;28;20272;-67
2021/12/23 06:34:19;;;;;;;0.30;0.30;;;;;;;;;;5022989;28;20212;-67
2021/12/23 06:36:47;;;;;;;0.93;0.93;;;;;;;;;;5022905;28;20205;-66
2021/12/23 06:39:13;;;;;;;0.30;0.30;;;;;;;;;;5023155;28;20209;-67
2021/12/23 06:41:39;;;;;;;0.30;0.30;;;;;;;;;;5022866;28;20272;-67
2021/12/23 06:44:06;;;;;;;0.20;0.20;;;;;;;;;;5023192;28;20507;-67
2021/12/23 06:46:32;;;;;;;0.30;0.30;;;;;;;;;;5023129;28;20447;-67
2021/12/23 06:48:58;;;;;;;0.43;0.43;;;;;;;;;;5009248;28;20210;-67
2021/12/23 06:51:26;;;;;;;0.67;0.67;;;;;;;;;;5016391;28;20433;-67
2021/12/23 06:53:54;;;;;;;1.47;1.47;;;;;;;;;;5010285;28;20387;-68
2021/12/23 06:56:20;;;;;;;0.30;0.30;;;;;;;;;;5014831;28;20457;-67
2021/12/23 06:58:49;;;;;;;0.30;0.30;;;;;;;;;;5015029;28;20202;-67
2021/12/23 07:01:17;;;;;;;1.37;1.27;;;;;;;;;;5019408;28;20205;-67
2021/12/23 07:04:02;;;;;;;0.30;0.30;;;;;;;;;;5030113;28;20214;-68
2021/12/23 07:06:30;;;;;;;1.53;1.53;;;;;;;;;;5016545;28;20224;-67
2021/12/23 07:08:58;;;;;;;0.37;0.37;;;;;;;;;;5014400;28;20260;-67
2021/12/23 07:11:24;;;;;;;0.30;0.30;;;;;;;;;;5019325;28;20206;-66
2021/12/23 07:13:51;;;;;;;0.63;0.63;;;;;;;;;;5017044;28;20210;-67
2021/12/23 07:16:17;;;;;;;0.30;0.30;;;;;;;;;;5015729;28;20252;-70
2021/12/23 07:18:43;;;;;;;0.30;0.30;;;;;;;;;;5022848;28;20209;-68
2021/12/23 07:21:10;;;;;;;0.50;0.50;;;;;;;;;;5020775;28;20262;-66
2021/12/23 07:23:36;;;;;;;0.30;0.30;;;;;;;;;;5026252;28;20370;-66
2021/12/23 07:26:03;;;;;;;0.30;0.30;;;;;;;;;;5021156;28;20212;-67
2021/12/23 07:28:30;;;;;;;0.30;0.30;;;;;;;;;;5021889;28;20204;-67
2021/12/23 07:30:56;;;;;;;0.40;0.40;;;;;;;;;;5015852;28;20386;-66
2021/12/23 07:33:22;;;;;;;0.83;0.83;;;;;;;;;;5019401;28;20250;-67
2021/12/23 07:35:49;;;;;;;0.30;0.30;;;;;;;;;;5017836;28;20236;-68
2021/12/23 07:38:15;;;;;;;0.30;0.30;;;;;;;;;;5019033;28;20420;-67
2021/12/23 07:40:42;;;;;;;0.37;0.37;;;;;;;;;;5033704;28;20216;-67
2021/12/23 07:43:21;;;;;;;0.30;0.30;;;;;;;;;;5021874;28;20208;-67
2021/12/23 07:45:47;;;;;;;0.30;0.30;;;;;;;;;;5015499;28;20272;-67
2021/12/23 07:48:13;;;;;;;0.30;0.30;;;;;;;;;;5019018;28;20544;-67
2021/12/23 07:50:41;;;;;;;0.30;0.30;;;;;;;;;;5020496;28;20250;-68
2021/12/23 07:53:07;;;;;;;0.30;0.30;;;;;;;;;;5027368;28;20204;-67
2021/12/23 07:55:34;;;;;;;6.17;5.93;;;;;;;;;;5045116;28;20553;-67
2021/12/23 07:58:00;;;;;;;0.20;0.20;;;;;;;;;;5038898;28;20239;-67
2021/12/23 08:00:29;;;;;;;0.30;0.30;;;;;;;;;;5041716;28;20208;-68
2021/12/23 08:02:57;;;;;;;0.30;0.30;;;;;;;;;;5033318;28;20219;-69
2021/12/23 08:05:23;;;;;;;0.30;0.30;;;;;;;;;;5031238;28;20208;-67
2021/12/23 08:07:49;;;;;;;0.77;0.77;;;;;;;;;;5035128;28;20224;-67
2021/12/23 08:10:16;;;;;;;0.30;0.30;;;;;;;;;;5041441;28;20249;-67
2021/12/23 08:12:42;;;;;;;0.30;0.30;;;;;;;;;;5032815;28;20231;-67
2021/12/23 08:15:09;;;;;;;0.30;0.30;;;;;;;;;;5040171;28;20458;-67
2021/12/23 08:17:38;;;;;;;0.30;0.30;;;;;;;;;;5041656;28;20203;-67
2021/12/23 08:20:05;;;;;;;0.30;0.30;;;;;;;;;;5030336;28;20213;-68
2021/12/23 08:22:31;;;;;;;0.30;0.30;;;;;;;;;;5037688;28;20247;-67
2021/12/23 08:25:00;;;;;;;1.00;1.00;;;;;;;;;;5038198;28;20580;-67
2021/12/23 08:27:29;;;;;;;0.30;0.30;;;;;;;;;;5034976;28;20231;-66
2021/12/23 08:29:55;;;;;;;0.63;0.63;;;;;;;;;;5026376;28;20207;-68
2021/12/23 08:32:22;;;;;;;0.30;0.30;;;;;;;;;;5011355;28;20425;-68
2021/12/23 08:34:49;;;;;;;1.30;1.30;;;;;;;;;;5013176;28;20233;-67
2021/12/23 08:37:15;;;;;;;0.30;0.30;;;;;;;;;;5013889;28;20205;-68
2021/12/23 08:39:42;;;;;;;0.30;0.30;;;;;;;;;;5024779;28;20197;-68
2021/12/23 08:42:09;;;;;;;0.73;0.73;;;;;;;;;;5023889;28;20204;-69
2021/12/23 08:44:35;;;;;;;0.30;0.30;;;;;;;;;;5018847;28;20201;-69
2021/12/23 08:47:02;;;;;;;0.30;0.30;;;;;;;;;;5014023;28;20221;-69
2021/12/23 08:49:28;;;;;;;0.30;0.30;;;;;;;;;;5013776;28;20256;-69
2021/12/23 08:51:56;;;;;;;0.50;0.50;;;;;;;;;;5020157;28;20245;-69
2021/12/23 08:54:23;;;;;;;0.30;0.30;;;;;;;;;;5018755;28;20205;-71
2021/12/23 08:56:49;;;;;;;0.30;0.30;;;;;;;;;;5007042;28;20209;-70
2021/12/23 08:59:17;;;;;;;0.30;0.30;;;;;;;;;;5009586;28;20493;-70
2021/12/23 09:01:43;;;;;;;0.30;0.30;;;;;;;;;;5007384;28;20210;-68
2021/12/23 09:04:09;;;;;;;0.30;0.30;;;;;;;;;;5016193;28;20292;-69
2021/12/23 09:06:36;;;;;;;0.30;0.30;;;;;;;;;;5008405;28;20251;-69
2021/12/23 09:09:04;;;;;;;0.30;0.30;;;;;;;;;;5015238;28;20247;-70
2021/12/23 09:11:30;;;;;;;0.30;0.30;;;;;;;;;;5008164;28;20254;-69
2021/12/23 09:13:57;;;;;;;0.27;0.27;;;;;;;;;;5018640;28;20496;-69
2021/12/23 09:16:23;;;;;;;0.30;0.30;;;;;;;;;;5015550;28;20368;-70
2021/12/23 09:18:49;;;;;;;0.30;0.30;;;;;;;;;;5012472;28;20197;-70
2021/12/23 09:21:16;;;;;;;0.30;0.30;;;;;;;;;;5017516;28;20206;-68
2021/12/23 09:23:42;;;;;;;0.30;0.30;;;;;;;;;;5015699;28;20464;-69
2021/12/23 09:26:10;;;;;;;0.30;0.30;;;;;;;;;;5015690;28;20205;-69
2021/12/23 09:28:51;;;;;;;0.90;0.90;;;;;;;;;;5007752;28;20229;-68
2021/12/23 09:34:01;;;;;;;0.20;0.20;;;;;;;;;;5023848;28;20236;-68
2021/12/23 09:36:27;;;;;;;0.23;0.23;;;;;;;;;;5023904;28;20205;-67
2021/12/23 09:38:54;;;;;;;0.30;0.30;;;;;;;;;;5023784;28;20484;-69
2021/12/23 09:41:22;;;;;;;0.30;0.30;;;;;;;;;;5023379;28;20386;-68
2021/12/23 09:43:49;;;;;;;0.27;0.27;;;;;;;;;;5023839;28;20570;-69
2021/12/23 09:46:16;;;;;;;0.20;0.20;;;;;;;;;;5023529;28;20220;-68
2021/12/23 09:48:43;;;;;;;0.30;0.30;;;;;;;;;;5023728;28;20237;-68
2021/12/23 09:51:12;;;;;;;0.30;0.30;;;;;;;;;;5023195;28;20233;-68
2021/12/23 09:53:40;;;;;;;0.30;0.30;;;;;;;;;;5023599;28;20205;-68
2021/12/23 09:56:07;;;;;;;0.40;0.40;;;;;;;;;;5009151;28;20209;-69
2021/12/23 09:58:34;;;;;;;0.30;0.30;;;;;;;;;;5004717;28;20394;-67
2021/12/23 10:01:01;;;;;;;0.30;0.30;;;;;;;;;;5006172;28;20276;-68
2021/12/23 10:03:28;;;;;;;0.53;0.53;;;;;;;;;;5018510;28;20201;-67
2021/12/23 10:05:55;;;;;;;0.30;0.30;;;;;;;;;;5020314;28;20434;-69
2021/12/23 10:08:22;;;;;;;6.40;5.20;;;;;;;;;;5020038;28;20288;-69
2021/12/23 10:10:53;;;;;;;0.20;0.20;;;;;;;;;;5017682;28;20209;-67
2021/12/23 10:32:34;;;;;;;0.30;0.30;;;;;;;;;;5022993;28;20372;-68
2021/12/23 10:38:02;;;;;;;1.40;1.30;;;;;;;;;;4940752;29;20207;-66
2021/12/23 10:40:29;;;;;;;0.30;0.30;;;;;;;;;;4999303;28;20547;-67
2021/12/23 10:42:55;;;;;;;0.30;0.30;;;;;;;;;;5009408;28;20263;-68
2021/12/23 10:45:22;;;;;;;0.33;0.33;;;;;;;;;;5014668;28;20434;-69
2021/12/23 10:47:55;;;;;;;0.20;0.20;;;;;;;;;;5007803;28;20415;-70
2021/12/23 10:50:29;;;;;;;0.40;0.40;;;;;;;;;;5007303;28;20290;-68
2021/12/23 10:53:01;;;;;;;0.93;0.87;;;;;;;;;;5015480;28;20232;-66
2021/12/23 10:58:15;;;;;;;0.30;0.30;;;;;;;;;;5007096;28;20268;-75
2021/12/23 11:00:44;;;;;;;0.30;0.30;;;;;;;;;;5007444;28;20198;-70
2021/12/23 11:03:16;;;;;;;0.30;0.30;;;;;;;;;;5016461;28;20220;-69
2021/12/23 11:05:48;;;;;;;0.30;0.30;;;;;;;;;;5017448;28;20271;-66
2021/12/23 11:08:23;;;;;;;0.30;0.30;;;;;;;;;;5025346;28;20241;-66
2021/12/23 11:28:01;;;;;;;0.30;0.30;;;;;;;;;;5024675;28;20240;-67
2021/12/23 11:36:19;;;;;;;0.23;0.23;;;;;;;;;;5019861;28;20239;-69
2021/12/23 11:39:12;;;;;;;0.30;0.30;;;;;;;;;;5020000;28;20204;-68
2021/12/23 11:41:47;;;;;;;0.30;0.30;;;;;;;;;;5024828;28;20197;-67
2021/12/23 11:44:14;;;;;;;0.47;0.47;;;;;;;;;;5019958;28;20196;-69
2021/12/23 11:46:45;;;;;;;0.27;0.27;;;;;;;;;;5022784;28;20496;-66
2021/12/23 11:49:13;;;;;;;0.20;0.20;;;;;;;;;;5019456;28;20214;-68
2021/12/23 11:51:51;;;;;;;0.27;0.27;;;;;;;;;;5021392;28;20552;-68
2021/12/23 11:54:18;;;;;;;0.20;0.20;;;;;;;;;;5015682;28;20205;-66
2021/12/23 11:56:46;;;;;;;5.00;4.80;;;;;;;;;;5024891;28;20243;-66
2021/12/23 11:59:13;;;;;;;0.20;0.20;;;;;;;;;;5019575;28;20237;-67
2021/12/23 12:01:41;;;;;;;0.30;0.30;;;;;;;;;;5019401;28;20514;-68
2021/12/23 12:04:08;;;;;;;0.20;0.20;;;;;;;;;;5018819;28;20557;-67
2021/12/23 12:06:38;;;;;;;0.63;0.63;;;;;;;;;;5013002;28;20203;-69
2021/12/23 12:09:14;;;;;;;0.30;0.30;;;;;;;;;;5019530;28;20257;-66
2021/12/23 12:11:40;;;;;;;0.20;0.20;;;;;;;;;;5021727;28;20201;-69
2021/12/23 12:14:21;;;;;;;0.30;0.30;;;;;;;;;;5025113;28;20201;-69
2021/12/23 12:16:48;;;;;;;0.30;0.30;;;;;;;;;;5022275;28;20401;-68
2021/12/23 12:19:14;;;;;;;0.20;0.20;;;;;;;;;;5018212;28;20198;-69
2021/12/23 12:21:42;;;;;;;0.30;0.30;;;;;;;;;;5024841;28;20201;-68
2021/12/23 12:24:15;;;;;;;0.20;0.20;;;;;;;;;;5016984;28;20216;-66
2021/12/23 12:26:52;;;;;;;0.40;0.40;;;;;;;;;;5024829;28;20205;-70
2021/12/23 12:29:20;;;;;;;0.20;0.20;;;;;;;;;;5025078;28;20269;-68
2021/12/23 12:31:47;;;;;;;0.23;0.23;;;;;;;;;;5024452;28;20229;-69
2021/12/23 12:34:13;;;;;;;0.27;0.27;;;;;;;;;;5021867;28;20201;-67
2021/12/23 12:36:41;;;;;;;0.20;0.20;;;;;;;;;;5024784;28;20249;-66
2021/12/23 12:39:21;;;;;;;0.20;0.20;;;;;;;;;;5024305;28;20244;-66
2021/12/23 12:41:47;;;;;;;0.70;0.70;;;;;;;;;;5015585;28;20233;-65
2021/12/23 12:44:19;;;;;;;0.20;0.20;;;;;;;;;;5018635;28;20504;-67
2021/12/23 12:46:52;;;;;;;2.20;2.00;;;;;;;;;;5020474;28;20225;-67
2021/12/23 12:49:24;;;;;;;0.23;0.23;;;;;;;;;;5008377;28;20214;-65
2021/12/23 12:51:51;;;;;;;0.30;0.30;;;;;;;;;;5013495;28;20237;-68
2021/12/23 12:54:26;;;;;;;3.13;1.43;;;;;;;;;;5017262;28;20267;-68
2021/12/23 12:56:55;;;;;;;0.20;0.20;;;;;;;;;;5018167;28;20210;-67
2021/12/23 12:59:24;;;;;;;0.20;0.20;;;;;;;;;;5018067;28;20201;-68
2021/12/23 13:01:51;;;;;;;0.40;0.40;;;;;;;;;;5020478;28;20202;-66
2021/12/23 13:04:22;;;;;;;0.20;0.20;;;;;;;;;;5009583;28;20396;-68
2021/12/23 13:06:48;;;;;;;0.27;0.27;;;;;;;;;;5020744;28;20208;-65
2021/12/23 13:09:16;;;;;;;3.90;2.43;;;;;;;;;;5024184;28;20291;-67
2021/12/23 13:11:44;;;;;;;0.50;0.50;;;;;;;;;;5024061;28;20205;-66
2021/12/23 13:14:13;;;;;;;0.20;0.20;;;;;;;;;;5023186;28;20210;-65
2021/12/23 13:16:50;;;;;;;0.27;0.27;;;;;;;;;;5023579;28;20212;-70
2021/12/23 13:19:20;;;;;;;0.20;0.20;;;;;;;;;;5023877;28;20255;-68
2021/12/23 13:21:47;;;;;;;0.20;0.20;;;;;;;;;;5030603;28;20231;-68
2021/12/23 13:24:14;;;;;;;0.40;0.40;;;;;;;;;;5044105;28;20219;-65
2021/12/23 13:26:42;;;;;;;1.57;1.57;;;;;;;;;;5020156;28;20260;-69
2021/12/23 13:29:10;;;;;;;0.20;0.20;;;;;;;;;;5017888;28;20309;-69
2021/12/23 13:31:37;;;;;;;0.83;0.83;;;;;;;;;;5023123;28;20205;-67
2021/12/23 13:34:04;;;;;;;0.20;0.20;;;;;;;;;;5016779;28;20387;-65
2021/12/23 13:36:32;;;;;;;0.30;0.30;;;;;;;;;;5022462;28;20201;-69
2021/12/23 13:38:59;;;;;;;0.20;0.20;;;;;;;;;;5016950;28;20457;-66
2021/12/23 13:41:27;;;;;;;0.20;0.20;;;;;;;;;;5016346;28;20205;-66
2021/12/23 13:43:55;;;;;;;0.20;0.20;;;;;;;;;;5014663;28;20329;-66
2021/12/23 13:46:23;;;;;;;1.07;1.07;;;;;;;;;;5017734;28;20210;-66
2021/12/23 13:48:51;;;;;;;0.20;0.20;;;;;;;;;;5022674;28;20233;-68
2021/12/23 13:51:18;;;;;;;0.20;0.20;;;;;;;;;;5019810;28;20233;-67
2021/12/23 13:53:44;;;;;;;0.30;0.30;;;;;;;;;;5023505;28;20512;-67
2021/12/23 13:56:11;;;;;;;0.20;0.20;;;;;;;;;;5023263;28;20309;-66
2021/12/23 13:58:38;;;;;;;0.20;0.20;;;;;;;;;;5023530;28;20560;-67
2021/12/23 14:01:04;;;;;;;0.20;0.20;;;;;;;;;;5023662;28;20249;-63
2021/12/23 14:03:31;;;;;;;0.30;0.30;;;;;;;;;;5020000;28;20429;-65
2021/12/23 14:05:58;;;;;;;0.20;0.20;;;;;;;;;;5020035;28;20205;-64
2021/12/23 14:08:25;;;;;;;0.20;0.20;;;;;;;;;;5019775;28;20233;-64
2021/12/23 14:10:51;;;;;;;0.20;0.20;;;;;;;;;;5017571;28;20205;-65
2021/12/23 14:13:19;;;;;;;0.20;0.20;;;;;;;;;;5006124;28;20268;-63
2021/12/23 14:15:46;;;;;;;0.20;0.20;;;;;;;;;;5006692;28;20201;-67
2021/12/23 14:18:18;;;;;;;0.20;0.20;;;;;;;;;;5019670;28;20312;-67
2021/12/23 14:23:32;;;;;;;0.20;0.20;;;;;;;;;;5020162;28;20204;-68
2021/12/23 14:25:59;;;;;;;0.20;0.20;;;;;;;;;;5019045;28;20205;-69
2021/12/23 14:28:27;;;;;;;0.97;0.97;;;;;;;;;;5019042;28;20232;-69
2021/12/23 14:30:55;;;;;;;0.43;0.43;;;;;;;;;;5017894;28;20205;-69
2021/12/23 14:33:23;;;;;;;0.20;0.20;;;;;;;;;;5022286;28;20279;-68
2021/12/23 14:35:54;;;;;;;0.20;0.20;;;;;;;;;;5017147;28;20240;-69
2021/12/23 14:38:25;;;;;;;0.20;0.20;;;;;;;;;;5022077;28;20205;-69
2021/12/23 14:40:57;;;;;;;0.20;0.20;;;;;;;;;;5017658;28;20551;-68
2021/12/23 14:43:23;;;;;;;0.20;0.20;;;;;;;;;;5022840;28;20260;-67
2021/12/23 14:45:54;;;;;;;0.30;0.30;;;;;;;;;;5021967;28;20554;-65
2021/12/23 14:48:20;;;;;;;0.20;0.20;;;;;;;;;;5022456;28;20397;-67
2021/12/23 14:50:51;;;;;;;0.27;0.27;;;;;;;;;;5018088;28;20239;-66
2021/12/23 14:53:20;;;;;;;0.20;0.20;;;;;;;;;;5016418;28;20255;-71
2021/12/23 14:55:53;;;;;;;0.20;0.20;;;;;;;;;;5016055;28;20212;-68
2021/12/23 14:58:19;;;;;;;0.27;0.27;;;;;;;;;;5019835;28;20392;-67
2021/12/23 15:00:46;;;;;;;0.23;0.23;;;;;;;;;;5015199;28;20246;-68
2021/12/23 15:03:13;;;;;;;0.20;0.20;;;;;;;;;;5018640;28;20201;-69
2021/12/23 15:05:40;;;;;;;0.30;0.30;;;;;;;;;;5020716;28;20206;-69
2021/12/23 15:08:07;;;;;;;0.30;0.30;;;;;;;;;;5019016;28;20225;-69
2021/12/23 15:10:37;;;;;;;0.20;0.20;;;;;;;;;;5018899;28;20271;-68
2021/12/23 15:13:13;;;;;;;0.20;0.20;;;;;;;;;;5017509;28;20492;-67
2021/12/23 15:15:40;;;;;;;0.20;0.20;;;;;;;;;;5015919;28;20201;-69
2021/12/23 15:18:14;;;;;;;1.03;1.03;;;;;;;;;;5019487;28;20211;-68
2021/12/23 15:20:46;;;;;;;0.30;0.30;;;;;;;;;;5015575;28;20193;-69
2021/12/23 15:23:13;;;;;;;0.67;0.67;;;;;;;;;;5004977;28;20509;-71
2021/12/23 15:25:41;;;;;;;0.20;0.20;;;;;;;;;;5002738;28;20512;-67
2021/12/23 15:28:08;;;;;;;0.20;0.20;;;;;;;;;;5002765;28;20214;-70
2021/12/23 15:30:34;;;;;;;0.20;0.20;;;;;;;;;;5003144;28;20272;-67
2021/12/23 15:33:01;;;;;;;0.20;0.20;;;;;;;;;;5003757;28;20229;-70
2021/12/23 15:35:30;;;;;;;0.20;0.20;;;;;;;;;;5003082;28;20210;-70
2021/12/23 15:37:58;;;;;;;0.30;0.30;;;;;;;;;;5018405;28;20248;-71
2021/12/23 15:40:26;;;;;;;1.70;1.70;;;;;;;;;;5026002;28;20209;-66
2021/12/23 15:42:54;;;;;;;0.30;0.30;;;;;;;;;;5025813;28;20201;-66